sensor_id;sensor_type;location;lat;lon;timestamp;pressure;altitude;pressure_sealevel;temperature;humidity
72409;BME280;60402;48.082;11.628;2023-04-03T00:02:09;95840.44;;;1.63;100.00
72409;BME280;60402;48.082;11.628;2023-04-03T00:04:54;95816.22;;;1.67;100.00
72409;BME280;60402;48.082;11.628;2023-04-03T00:07:40;95827.38;;;1.67;100.00
72409;BME280;60402;48.082;11.628;2023-04-03T00:10:26;95827.41;;;1.70;100.00
72409;BME280;60402;48.082;11.628;2023-04-03T00:13:12;95841.34;;;1.70;100.00
72409;BME280;60402;48.082;11.628;2023-04-03T00:15:58;95844.47;;;1.65;100.00
72409;BME280;60402;48.082;11.628;2023-04-03T00:18:43;95822.53;;;1.60;100.00
72409;BME280;60402;48.082;11.628;2023-04-03T00:21:29;95830.66;;;1.76;100.00
72409;BME280;60402;48.082;11.628;2023-04-03T00:24:15;95833.75;;;1.67;100.00
72409;BME280;60402;48.082;11.628;2023-04-03T00:27:00;95828.09;;;1.60;100.00
72409;BME280;60402;48.082;11.628;2023-04-03T00:29:46;95843.34;;;1.73;100.00
72409;BME280;60402;48.082;11.628;2023-04-03T00:32:32;95838.50;;;1.67;100.00
72409;BME280;60402;48.082;11.628;2023-04-03T00:35:19;95842.47;;;1.66;100.00
72409;BME280;60402;48.082;11.628;2023-04-03T00:38:05;95811.00;;;1.62;100.00
72409;BME280;60402;48.082;11.628;2023-04-03T00:40:51;95837.00;;;1.73;100.00
72409;BME280;60402;48.082;11.628;2023-04-03T00:43:36;95857.84;;;1.86;100.00
72409;BME280;60402;48.082;11.628;2023-04-03T00:46:22;95844.47;;;1.65;100.00
72409;BME280;60402;48.082;11.628;2023-04-03T00:49:08;95846.34;;;1.27;100.00
72409;BME280;60402;48.082;11.628;2023-04-03T00:51:54;95851.56;;;1.33;100.00
72409;BME280;60402;48.082;11.628;2023-04-03T00:54:42;95845.41;;;1.46;100.00
72409;BME280;60402;48.082;11.628;2023-04-03T00:57:30;95853.47;;;1.55;100.00
72409;BME280;60402;48.082;11.628;2023-04-03T01:00:19;95852.19;;;1.49;100.00
72409;BME280;60402;48.082;11.628;2023-04-03T01:03:05;95857.16;;;1.33;100.00
72409;BME280;60402;48.082;11.628;2023-04-03T01:05:51;95836.94;;;1.13;100.00
72409;BME280;60402;48.082;11.628;2023-04-03T01:08:36;95814.19;;;1.07;100.00
72409;BME280;60402;48.082;11.628;2023-04-03T01:11:22;95834.16;;;1.13;100.00
72409;BME280;60402;48.082;11.628;2023-04-03T01:14:08;95772.81;;;0.75;100.00
72409;BME280;60402;48.082;11.628;2023-04-03T01:16:54;95825.59;;;0.98;100.00
72409;BME280;60402;48.082;11.628;2023-04-03T01:19:43;95838.91;;;1.09;100.00
72409;BME280;60402;48.082;11.628;2023-04-03T01:22:48;95859.00;;;1.25;100.00
72409;BME280;60402;48.082;11.628;2023-04-03T01:25:45;95857.63;;;1.12;100.00
72409;BME280;60402;48.082;11.628;2023-04-03T01:28:33;95856.97;;;1.22;100.00
72409;BME280;60402;48.082;11.628;2023-04-03T01:31:24;95850.56;;;1.18;100.00
72409;BME280;60402;48.082;11.628;2023-04-03T01:34:10;95835.41;;;1.15;100.00
72409;BME280;60402;48.082;11.628;2023-04-03T01:36:56;95858.88;;;1.44;100.00
72409;BME280;60402;48.082;11.628;2023-04-03T01:39:42;95843.03;;;1.22;100.00
72409;BME280;60402;48.082;11.628;2023-04-03T01:42:27;95835.78;;;1.14;100.00
72409;BME280;60402;48.082;11.628;2023-04-03T01:45:13;95857.94;;;1.33;100.00
72409;BME280;60402;48.082;11.628;2023-04-03T01:47:59;95857.78;;;1.22;100.00
72409;BME280;60402;48.082;11.628;2023-04-03T01:50:45;95860.66;;;1.56;100.00
72409;BME280;60402;48.082;11.628;2023-04-03T01:53:31;95848.84;;;1.66;100.00
72409;BME280;60402;48.082;11.628;2023-04-03T01:56:16;95848.19;;;1.76;100.00
72409;BME280;60402;48.082;11.628;2023-04-03T01:59:02;95838.56;;;1.70;100.00
72409;BME280;60402;48.082;11.628;2023-04-03T02:01:48;95831.75;;;1.38;100.00
72409;BME280;60402;48.082;11.628;2023-04-03T02:04:33;95839.53;;;1.55;100.00
72409;BME280;60402;48.082;11.628;2023-04-03T02:07:19;95820.81;;;1.52;100.00
72409;BME280;60402;48.082;11.628;2023-04-03T02:10:05;95847.94;;;1.59;100.00
72409;BME280;60402;48.082;11.628;2023-04-03T02:12:51;95828.19;;;1.37;100.00
72409;BME280;60402;48.082;11.628;2023-04-03T02:15:38;95836.53;;;1.37;100.00
72409;BME280;60402;48.082;11.628;2023-04-03T02:18:24;95822.09;;;1.32;100.00
72409;BME280;60402;48.082;11.628;2023-04-03T02:21:10;95839.41;;;1.74;100.00
72409;BME280;60402;48.082;11.628;2023-04-03T02:23:55;95825.84;;;1.73;100.00
72409;BME280;60402;48.082;11.628;2023-04-03T02:26:41;95851.94;;;1.91;100.00
72409;BME280;60402;48.082;11.628;2023-04-03T02:29:27;95836.66;;;1.78;100.00
72409;BME280;60402;48.082;11.628;2023-04-03T02:32:13;95847.47;;;1.83;100.00
72409;BME280;60402;48.082;11.628;2023-04-03T02:34:58;95840.06;;;1.64;100.00
72409;BME280;60402;48.082;11.628;2023-04-03T02:37:44;95832.38;;;1.54;100.00
72409;BME280;60402;48.082;11.628;2023-04-03T02:40:29;95834.34;;;1.53;100.00
72409;BME280;60402;48.082;11.628;2023-04-03T02:43:15;95833.75;;;1.67;100.00
72409;BME280;60402;48.082;11.628;2023-04-03T02:46:01;95832.13;;;1.36;100.00
72409;BME280;60402;48.082;11.628;2023-04-03T02:48:46;95846.16;;;1.43;100.00
72409;BME280;60402;48.082;11.628;2023-04-03T02:51:32;95815.78;;;1.35;100.00
72409;BME280;60402;48.082;11.628;2023-04-03T02:54:18;95843.59;;;1.91;100.00
72409;BME280;60402;48.082;11.628;2023-04-03T02:57:03;95846.31;;;1.84;100.00
72409;BME280;60402;48.082;11.628;2023-04-03T02:59:49;95839.53;;;1.85;100.00
72409;BME280;60402;48.082;11.628;2023-04-03T03:02:35;95845.00;;;1.78;100.00
72409;BME280;60402;48.082;11.628;2023-04-03T03:05:21;95846.94;;;2.04;100.00
72409;BME280;60402;48.082;11.628;2023-04-03T03:08:07;95824.81;;;1.85;100.00
72409;BME280;60402;48.082;11.628;2023-04-03T03:10:52;95830.59;;;2.02;100.00
72409;BME280;60402;48.082;11.628;2023-04-03T03:13:38;95848.59;;;2.09;100.00
72409;BME280;60402;48.082;11.628;2023-04-03T03:16:24;95854.66;;;2.18;100.00
72409;BME280;60402;48.082;11.628;2023-04-03T03:19:09;95841.53;;;1.85;100.00
72409;BME280;60402;48.082;11.628;2023-04-03T03:21:55;95843.63;;;1.95;100.00
72409;BME280;60402;48.082;11.628;2023-04-03T03:24:42;95849.16;;;1.91;100.00
72409;BME280;60402;48.082;11.628;2023-04-03T03:27:28;95859.97;;;1.96;100.00
72409;BME280;60402;48.082;11.628;2023-04-03T03:30:13;95830.66;;;1.76;100.00
72409;BME280;60402;48.082;11.628;2023-04-03T03:32:59;95847.00;;;1.77;100.00
72409;BME280;60402;48.082;11.628;2023-04-03T03:35:45;95858.09;;;2.04;100.00
72409;BME280;60402;48.082;11.628;2023-04-03T03:38:31;95832.94;;;2.00;100.00
72409;BME280;60402;48.082;11.628;2023-04-03T03:41:16;95846.09;;;2.00;100.00
72409;BME280;60402;48.082;11.628;2023-04-03T03:44:02;95862.34;;;2.28;100.00
72409;BME280;60402;48.082;11.628;2023-04-03T03:46:48;95838.75;;;1.88;100.00
72409;BME280;60402;48.082;11.628;2023-04-03T03:49:33;95841.19;;;1.90;100.00
72409;BME280;60402;48.082;11.628;2023-04-03T03:52:19;95861.03;;;2.18;100.00
72409;BME280;60402;48.082;11.628;2023-04-03T03:55:05;95830.09;;;1.93;100.00
72409;BME280;60402;48.082;11.628;2023-04-03T03:57:51;95847.50;;;1.87;100.00
72409;BME280;60402;48.082;11.628;2023-04-03T04:00:37;95857.66;;;2.02;100.00
72409;BME280;60402;48.082;11.628;2023-04-03T04:03:22;95856.94;;;1.75;100.00
72409;BME280;60402;48.082;11.628;2023-04-03T04:06:08;95853.66;;;1.69;100.00
72409;BME280;60402;48.082;11.628;2023-04-03T04:08:54;95818.78;;;1.49;100.00
72409;BME280;60402;48.082;11.628;2023-04-03T04:11:39;95842.47;;;1.66;100.00
72409;BME280;60402;48.082;11.628;2023-04-03T04:14:25;95855.28;;;1.70;100.00
72409;BME280;60402;48.082;11.628;2023-04-03T04:17:15;95854.69;;;1.58;100.00
72409;BME280;60402;48.082;11.628;2023-04-03T04:20:01;95862.50;;;1.75;100.00
72409;BME280;60402;48.082;11.628;2023-04-03T04:22:47;95845.06;;;1.82;100.00
72409;BME280;60402;48.082;11.628;2023-04-03T04:25:33;95858.41;;;1.69;100.00
72409;BME280;60402;48.082;11.628;2023-04-03T04:28:19;95860.41;;;1.68;100.00
72409;BME280;60402;48.082;11.628;2023-04-03T04:31:05;95837.69;;;1.36;100.00
72409;BME280;60402;48.082;11.628;2023-04-03T04:33:50;95847.25;;;1.65;100.00
72409;BME280;60402;48.082;11.628;2023-04-03T04:36:36;95847.88;;;1.51;100.00
72409;BME280;60402;48.082;11.628;2023-04-03T04:39:22;95859.34;;;1.46;100.00
72409;BME280;60402;48.082;11.628;2023-04-03T04:42:07;95816.53;;;1.32;100.00
72409;BME280;60402;48.082;11.628;2023-04-03T04:44:58;95850.41;;;1.64;100.00
72409;BME280;60402;48.082;11.628;2023-04-03T04:47:43;95858.81;;;1.67;100.00
72409;BME280;60402;48.082;11.628;2023-04-03T04:50:29;95859.38;;;1.80;100.00
72409;BME280;60402;48.082;11.628;2023-04-03T04:53:15;95829.34;;;1.66;100.00
72409;BME280;60402;48.082;11.628;2023-04-03T04:56:01;95864.78;;;1.99;100.00
72409;BME280;60402;48.082;11.628;2023-04-03T04:58:46;95880.09;;;1.83;100.00
72409;BME280;60402;48.082;11.628;2023-04-03T05:01:35;95863.34;;;1.79;100.00
72409;BME280;60402;48.082;11.628;2023-04-03T05:04:27;95850.69;;;1.85;100.00
72409;BME280;60402;48.082;11.628;2023-04-03T05:07:13;95838.59;;;1.74;100.00
72409;BME280;60402;48.082;11.628;2023-04-03T05:09:58;95860.59;;;1.83;100.00
72409;BME280;60402;48.082;11.628;2023-04-03T05:12:44;95852.09;;;1.72;100.00
72409;BME280;60402;48.082;11.628;2023-04-03T05:15:30;95864.50;;;1.74;100.00
72409;BME280;60402;48.082;11.628;2023-04-03T05:18:15;95877.88;;;1.95;100.00
72409;BME280;60402;48.082;11.628;2023-04-03T05:21:01;95864.59;;;1.55;100.00
72409;BME280;60402;48.082;11.628;2023-04-03T05:23:46;95830.97;;;1.41;100.00
72409;BME280;60402;48.082;11.628;2023-04-03T05:26:32;95817.03;;;1.37;100.00
72409;BME280;60402;48.082;11.628;2023-04-03T05:29:18;95870.94;;;1.82;100.00
72409;BME280;60402;48.082;11.628;2023-04-03T05:32:03;95864.69;;;1.92;100.00
72409;BME280;60402;48.082;11.628;2023-04-03T05:34:49;95863.47;;;1.60;100.00
72409;BME280;60402;48.082;11.628;2023-04-03T05:37:36;95883.16;;;2.04;100.00
72409;BME280;60402;48.082;11.628;2023-04-03T05:40:22;95872.97;;;1.85;100.00
72409;BME280;60402;48.082;11.628;2023-04-03T05:43:07;95888.50;;;1.86;100.00
72409;BME280;60402;48.082;11.628;2023-04-03T05:45:53;95869.16;;;1.67;100.00
72409;BME280;60402;48.082;11.628;2023-04-03T05:48:39;95854.47;;;1.70;100.00
72409;BME280;60402;48.082;11.628;2023-04-03T05:51:29;95894.72;;;2.02;100.00
72409;BME280;60402;48.082;11.628;2023-04-03T05:57:03;95840.78;;;1.31;100.00
72409;BME280;60402;48.082;11.628;2023-04-03T05:59:49;95878.03;;;1.76;100.00
72409;BME280;60402;48.082;11.628;2023-04-03T06:02:35;95896.47;;;1.88;100.00
72409;BME280;60402;48.082;11.628;2023-04-03T06:05:21;95890.09;;;1.87;100.00
72409;BME280;60402;48.082;11.628;2023-04-03T06:08:07;95897.72;;;1.90;100.00
72409;BME280;60402;48.082;11.628;2023-04-03T06:10:54;95843.19;;;1.59;100.00
72409;BME280;60402;48.082;11.628;2023-04-03T06:13:40;95888.91;;;2.18;100.00
72409;BME280;60402;48.082;11.628;2023-04-03T06:16:26;95903.53;;;2.08;100.00
72409;BME280;60402;48.082;11.628;2023-04-03T06:19:12;95904.81;;;1.84;100.00
72409;BME280;60402;48.082;11.628;2023-04-03T06:21:58;95901.59;;;1.82;100.00
72409;BME280;60402;48.082;11.628;2023-04-03T06:24:43;95872.28;;;1.62;100.00
72409;BME280;60402;48.082;11.628;2023-04-03T06:27:29;95914.06;;;1.62;100.00
72409;BME280;60402;48.082;11.628;2023-04-03T06:30:14;95879.50;;;1.40;100.00
72409;BME280;60402;48.082;11.628;2023-04-03T06:33:00;95908.09;;;1.63;100.00
72409;BME280;60402;48.082;11.628;2023-04-03T06:35:46;95900.88;;;1.59;100.00
72409;BME280;60402;48.082;11.628;2023-04-03T06:38:33;95909.22;;;1.85;100.00
72409;BME280;60402;48.082;11.628;2023-04-03T06:41:19;95891.44;;;1.67;100.00
72409;BME280;60402;48.082;11.628;2023-04-03T06:44:05;95913.88;;;1.77;100.00
72409;BME280;60402;48.082;11.628;2023-04-03T06:46:50;95915.81;;;2.03;100.00
72409;BME280;60402;48.082;11.628;2023-04-03T06:49:37;95893.47;;;2.00;100.00
72409;BME280;60402;48.082;11.628;2023-04-03T06:52:22;95892.16;;;1.90;100.00
72409;BME280;60402;48.082;11.628;2023-04-03T06:55:09;95868.69;;;1.61;100.00
72409;BME280;60402;48.082;11.628;2023-04-03T06:57:55;95910.06;;;1.89;100.00
72409;BME280;60402;48.082;11.628;2023-04-03T07:00:41;95893.03;;;1.68;100.00
72409;BME280;60402;48.082;11.628;2023-04-03T07:03:26;95902.63;;;1.70;100.00
72409;BME280;60402;48.082;11.628;2023-04-03T07:06:14;95922.81;;;1.90;100.00
72409;BME280;60402;48.082;11.628;2023-04-03T07:09:01;95922.59;;;2.02;100.00
72409;BME280;60402;48.082;11.628;2023-04-03T07:11:48;95926.53;;;2.01;100.00
72409;BME280;60402;48.082;11.628;2023-04-03T07:14:33;95933.75;;;2.06;100.00
72409;BME280;60402;48.082;11.628;2023-04-03T07:17:19;95928.22;;;2.10;100.00
72409;BME280;60402;48.082;11.628;2023-04-03T07:20:06;95929.72;;;2.34;100.00
72409;BME280;60402;48.082;11.628;2023-04-03T07:22:52;95920.72;;;2.14;100.00
72409;BME280;60402;48.082;11.628;2023-04-03T07:25:49;95941.03;;;2.48;100.00
72409;BME280;60402;48.082;11.628;2023-04-03T07:28:35;95942.97;;;2.77;100.00
72409;BME280;60402;48.082;11.628;2023-04-03T07:31:21;95911.00;;;2.71;100.00
72409;BME280;60402;48.082;11.628;2023-04-03T07:34:08;95940.59;;;2.79;100.00
72409;BME280;60402;48.082;11.628;2023-04-03T07:36:53;95940.00;;;2.63;100.00
72409;BME280;60402;48.082;11.628;2023-04-03T07:39:43;95938.75;;;2.57;100.00
72409;BME280;60402;48.082;11.628;2023-04-03T07:42:30;95941.28;;;2.32;100.00
72409;BME280;60402;48.082;11.628;2023-04-03T07:45:15;95887.84;;;1.96;100.00
72409;BME280;60402;48.082;11.628;2023-04-03T07:48:03;95957.59;;;2.64;100.00
72409;BME280;60402;48.082;11.628;2023-04-03T07:50:49;95955.84;;;2.52;100.00
72409;BME280;60402;48.082;11.628;2023-04-03T07:53:34;95946.00;;;2.28;100.00
72409;BME280;60402;48.082;11.628;2023-04-03T07:56:20;95953.28;;;2.36;100.00
72409;BME280;60402;48.082;11.628;2023-04-03T07:59:06;95960.44;;;2.37;100.00
72409;BME280;60402;48.082;11.628;2023-04-03T08:01:52;95946.63;;;2.48;100.00
72409;BME280;60402;48.082;11.628;2023-04-03T08:04:38;95950.59;;;2.47;100.00
72409;BME280;60402;48.082;11.628;2023-04-03T08:07:24;95951.97;;;2.26;98.34
72409;BME280;60402;48.082;11.628;2023-04-03T08:10:10;95932.25;;;2.12;97.85
72409;BME280;60402;48.082;11.628;2023-04-03T08:12:56;95959.41;;;2.19;98.99
72409;BME280;60402;48.082;11.628;2023-04-03T08:15:41;95951.81;;;2.16;98.12
72409;BME280;60402;48.082;11.628;2023-04-03T08:18:27;95955.25;;;2.05;98.71
72409;BME280;60402;48.082;11.628;2023-04-03T08:21:13;95969.50;;;2.27;98.80
72409;BME280;60402;48.082;11.628;2023-04-03T08:23:59;95943.16;;;2.24;99.34
72409;BME280;60402;48.082;11.628;2023-04-03T08:26:45;95954.41;;;2.32;98.51
72409;BME280;60402;48.082;11.628;2023-04-03T08:29:30;95951.53;;;2.24;97.66
72409;BME280;60402;48.082;11.628;2023-04-03T08:32:16;95976.78;;;2.39;99.69
72409;BME280;60402;48.082;11.628;2023-04-03T08:35:05;95960.16;;;2.46;98.28
72409;BME280;60402;48.082;11.628;2023-04-03T08:37:51;95977.78;;;2.87;97.00
72409;BME280;60402;48.082;11.628;2023-04-03T08:40:37;95948.44;;;2.33;96.63
72409;BME280;60402;48.082;11.628;2023-04-03T08:43:35;95978.44;;;2.43;97.69
72409;BME280;60402;48.082;11.628;2023-04-03T08:46:31;95965.56;;;2.32;98.54
72409;BME280;60402;48.082;11.628;2023-04-03T08:52:12;95954.66;;;2.19;97.23
72409;BME280;60402;48.082;11.628;2023-04-03T08:55:03;95991.44;;;2.62;96.36
72409;BME280;60402;48.082;11.628;2023-04-03T08:57:57;95986.06;;;2.46;97.69
72409;BME280;60402;48.082;11.628;2023-04-03T09:00:49;95983.50;;;2.64;98.20
72409;BME280;60402;48.082;11.628;2023-04-03T09:03:38;95968.81;;;2.71;96.72
72409;BME280;60402;48.082;11.628;2023-04-03T09:06:32;95991.38;;;2.92;94.43
72409;BME280;60402;48.082;11.628;2023-04-03T09:09:33;95985.50;;;3.04;94.43
72409;BME280;60402;48.082;11.628;2023-04-03T09:12:28;95968.13;;;2.81;93.79
72409;BME280;60402;48.082;11.628;2023-04-03T09:15:20;95967.59;;;2.68;95.42
72409;BME280;60402;48.082;11.628;2023-04-03T09:21:08;95987.28;;;3.23;95.38
72409;BME280;60402;48.082;11.628;2023-04-03T09:24:00;95984.59;;;3.30;94.65
72409;BME280;60402;48.082;11.628;2023-04-03T09:26:59;95972.25;;;3.39;90.51
72409;BME280;60402;48.082;11.628;2023-04-03T09:29:49;95967.44;;;3.32;91.05
72409;BME280;60402;48.082;11.628;2023-04-03T09:32:37;95964.91;;;3.20;91.86
72409;BME280;60402;48.082;11.628;2023-04-03T09:35:26;95952.66;;;3.31;92.11
72409;BME280;60402;48.082;11.628;2023-04-03T09:41:16;95970.41;;;3.57;92.56
72409;BME280;60402;48.082;11.628;2023-04-03T09:44:02;95975.72;;;3.69;90.78
72409;BME280;60402;48.082;11.628;2023-04-03T09:46:48;95972.38;;;3.49;91.67
72409;BME280;60402;48.082;11.628;2023-04-03T09:49:34;95911.53;;;3.28;90.91
72409;BME280;60402;48.082;11.628;2023-04-03T09:52:25;95984.56;;;3.78;90.77
72409;BME280;60402;48.082;11.628;2023-04-03T09:55:16;95959.81;;;3.29;90.58
72409;BME280;60402;48.082;11.628;2023-04-03T09:58:05;95983.75;;;3.26;90.48
72409;BME280;60402;48.082;11.628;2023-04-03T10:01:34;95978.63;;;2.95;92.62
72409;BME280;60402;48.082;11.628;2023-04-03T10:04:20;95972.94;;;2.84;93.43
72409;BME280;60402;48.082;11.628;2023-04-03T10:07:27;95992.25;;;3.00;91.93
72409;BME280;60402;48.082;11.628;2023-04-03T10:10:21;95986.59;;;2.93;92.05
72409;BME280;60402;48.082;11.628;2023-04-03T10:13:19;95991.53;;;3.10;92.42
72409;BME280;60402;48.082;11.628;2023-04-03T10:16:12;95957.41;;;2.83;91.83
72409;BME280;60402;48.082;11.628;2023-04-03T10:19:16;95954.09;;;3.11;90.74
72409;BME280;60402;48.082;11.628;2023-04-03T10:22:25;95977.81;;;3.31;88.46
72409;BME280;60402;48.082;11.628;2023-04-03T10:28:57;95983.75;;;3.26;88.71
72409;BME280;60402;48.082;11.628;2023-04-03T10:31:56;95951.16;;;3.00;86.49
72409;BME280;60402;48.082;11.628;2023-04-03T10:34:45;95967.91;;;3.41;85.97
72409;BME280;60402;48.082;11.628;2023-04-03T10:37:56;95971.94;;;3.44;85.86
72409;BME280;60402;48.082;11.628;2023-04-03T10:46:52;95959.72;;;3.63;87.18
72409;BME280;60402;48.082;11.628;2023-04-03T10:49:56;95968.66;;;2.94;94.53
72409;BME280;60402;48.082;11.628;2023-04-03T10:52:55;95946.69;;;2.89;97.03
72409;BME280;60402;48.082;11.628;2023-04-03T10:58:53;95979.72;;;3.20;95.07
72409;BME280;60402;48.082;11.628;2023-04-03T11:01:42;95958.38;;;3.01;96.53
72409;BME280;60402;48.082;11.628;2023-04-03T11:04:31;95962.19;;;3.27;95.97
72409;BME280;60402;48.082;11.628;2023-04-03T11:07:33;95963.56;;;3.03;94.86
72409;BME280;60402;48.082;11.628;2023-04-03T11:10:28;95952.63;;;2.84;96.78
72409;BME280;60402;48.082;11.628;2023-04-03T11:13:19;95929.13;;;2.88;96.80
72409;BME280;60402;48.082;11.628;2023-04-03T11:16:08;95979.28;;;3.18;95.38
72409;BME280;60402;48.082;11.628;2023-04-03T11:19:04;95989.75;;;2.88;97.29
72409;BME280;60402;48.082;11.628;2023-04-03T11:22:02;95979.00;;;2.56;94.80
72409;BME280;60402;48.082;11.628;2023-04-03T11:25:25;95948.41;;;2.29;94.12
72409;BME280;60402;48.082;11.628;2023-04-03T11:28:13;95956.47;;;2.38;93.46
72409;BME280;60402;48.082;11.628;2023-04-03T11:34:19;95970.13;;;2.47;95.30
72409;BME280;60402;48.082;11.628;2023-04-03T11:37:35;95967.63;;;2.72;92.28
72409;BME280;60402;48.082;11.628;2023-04-03T11:40:28;95966.66;;;2.57;89.68
72409;BME280;60402;48.082;11.628;2023-04-03T11:43:27;95951.78;;;2.46;91.27
72409;BME280;60402;48.082;11.628;2023-04-03T11:46:14;95958.22;;;2.50;86.24
72409;BME280;60402;48.082;11.628;2023-04-03T11:49:01;95963.41;;;2.51;88.23
72409;BME280;60402;48.082;11.628;2023-04-03T11:51:47;95933.88;;;2.47;88.24
72409;BME280;60402;48.082;11.628;2023-04-03T11:54:46;95956.84;;;2.70;88.60
72409;BME280;60402;48.082;11.628;2023-04-03T12:12:29;95952.25;;;2.89;85.52
72409;BME280;60402;48.082;11.628;2023-04-03T12:15:20;95955.06;;;2.89;86.12
72409;BME280;60402;48.082;11.628;2023-04-03T12:27:38;95951.81;;;2.87;82.21
72409;BME280;60402;48.082;11.628;2023-04-03T12:30:27;95939.56;;;2.95;83.05
72409;BME280;60402;48.082;11.628;2023-04-03T12:33:29;95926.47;;;3.02;82.26
72409;BME280;60402;48.082;11.628;2023-04-03T12:36:26;95938.13;;;3.15;79.08
72409;BME280;60402;48.082;11.628;2023-04-03T12:39:25;95936.97;;;3.16;78.09
72409;BME280;60402;48.082;11.628;2023-04-03T12:45:17;95928.88;;;3.52;78.71
72409;BME280;60402;48.082;11.628;2023-04-03T12:48:15;95938.84;;;3.49;76.99
72409;BME280;60402;48.082;11.628;2023-04-03T12:51:02;95902.56;;;3.56;77.72
72409;BME280;60402;48.082;11.628;2023-04-03T12:53:49;95935.84;;;3.79;77.36
72409;BME280;60402;48.082;11.628;2023-04-03T12:56:37;95923.06;;;3.78;75.79
72409;BME280;60402;48.082;11.628;2023-04-03T12:59:25;95910.69;;;3.79;76.04
72409;BME280;60402;48.082;11.628;2023-04-03T13:02:32;95902.84;;;4.03;78.51
72409;BME280;60402;48.082;11.628;2023-04-03T13:05:21;95906.53;;;4.21;78.00
72409;BME280;60402;48.082;11.628;2023-04-03T13:08:10;95915.00;;;4.39;77.20
72409;BME280;60402;48.082;11.628;2023-04-03T13:14:00;95901.81;;;4.47;63.93
72409;BME280;60402;48.082;11.628;2023-04-03T13:16:59;95881.50;;;4.64;64.94
72409;BME280;60402;48.082;11.628;2023-04-03T13:19:45;95897.06;;;4.65;70.98
72409;BME280;60402;48.082;11.628;2023-04-03T13:22:34;95905.38;;;4.29;71.45
72409;BME280;60402;48.082;11.628;2023-04-03T13:25:26;95900.13;;;4.21;71.53
72409;BME280;60402;48.082;11.628;2023-04-03T13:28:20;95898.13;;;4.21;70.87
72409;BME280;60402;48.082;11.628;2023-04-03T13:34:09;95900.63;;;4.51;65.92
72409;BME280;60402;48.082;11.628;2023-04-03T13:36:59;95834.81;;;3.74;66.39
72409;BME280;60402;48.082;11.628;2023-04-03T13:39:45;95905.44;;;4.44;65.30
72409;BME280;60402;48.082;11.628;2023-04-03T13:42:41;95873.09;;;4.57;64.63
72409;BME280;60402;48.082;11.628;2023-04-03T13:45:29;95875.56;;;5.05;62.82
72409;BME280;60402;48.082;11.628;2023-04-03T13:48:17;95896.38;;;5.32;62.60
72409;BME280;60402;48.082;11.628;2023-04-03T13:51:13;95891.97;;;5.35;61.07
72409;BME280;60402;48.082;11.628;2023-04-03T13:54:17;95896.78;;;5.27;59.60
72409;BME280;60402;48.082;11.628;2023-04-03T13:57:12;95862.72;;;4.93;60.82
72409;BME280;60402;48.082;11.628;2023-04-03T13:59:59;95866.31;;;4.72;61.27
72409;BME280;60402;48.082;11.628;2023-04-03T14:02:47;95876.53;;;4.15;61.95
72409;BME280;60402;48.082;11.628;2023-04-03T14:05:33;95869.25;;;3.96;62.38
72409;BME280;60402;48.082;11.628;2023-04-03T14:08:18;95876.13;;;4.13;62.58
72409;BME280;60402;48.082;11.628;2023-04-03T14:11:04;95874.00;;;3.88;61.55
72409;BME280;60402;48.082;11.628;2023-04-03T14:13:50;95881.94;;;3.79;61.58
72409;BME280;60402;48.082;11.628;2023-04-03T14:16:40;95863.59;;;3.85;61.36
72409;BME280;60402;48.082;11.628;2023-04-03T14:19:31;95859.28;;;3.98;61.25
72409;BME280;60402;48.082;11.628;2023-04-03T14:25:07;95898.84;;;4.00;60.56
72409;BME280;60402;48.082;11.628;2023-04-03T14:27:53;95871.97;;;3.85;59.90
72409;BME280;60402;48.082;11.628;2023-04-03T14:30:39;95888.84;;;3.96;60.19
72409;BME280;60402;48.082;11.628;2023-04-03T14:33:25;95868.94;;;4.12;61.15
72409;BME280;60402;48.082;11.628;2023-04-03T14:36:18;95881.78;;;4.27;58.96
72409;BME280;60402;48.082;11.628;2023-04-03T14:39:06;95884.22;;;4.46;58.23
72409;BME280;60402;48.082;11.628;2023-04-03T14:41:52;95859.44;;;4.34;58.70
72409;BME280;60402;48.082;11.628;2023-04-03T14:44:38;95875.34;;;4.23;56.63
72409;BME280;60402;48.082;11.628;2023-04-03T14:47:26;95878.22;;;4.41;58.22
72409;BME280;60402;48.082;11.628;2023-04-03T14:50:18;95868.53;;;4.17;56.54
72409;BME280;60402;48.082;11.628;2023-04-03T14:53:06;95841.41;;;4.31;58.06
72409;BME280;60402;48.082;11.628;2023-04-03T14:55:53;95870.22;;;4.39;56.52
72409;BME280;60402;48.082;11.628;2023-04-03T14:58:38;95881.78;;;4.30;56.10
72409;BME280;60402;48.082;11.628;2023-04-03T15:01:25;95863.38;;;4.26;55.45
72409;BME280;60402;48.082;11.628;2023-04-03T15:04:15;95886.22;;;4.46;55.40
72409;BME280;60402;48.082;11.628;2023-04-03T15:07:01;95861.91;;;4.78;55.16
72409;BME280;60402;48.082;11.628;2023-04-03T15:09:47;95876.31;;;4.84;54.68
72409;BME280;60402;48.082;11.628;2023-04-03T15:12:33;95859.13;;;4.71;54.98
72409;BME280;60402;48.082;11.628;2023-04-03T15:15:20;95870.34;;;4.85;52.84
72409;BME280;60402;48.082;11.628;2023-04-03T15:18:06;95845.13;;;4.82;51.51
72409;BME280;60402;48.082;11.628;2023-04-03T15:20:53;95862.38;;;5.09;52.74
72409;BME280;60402;48.082;11.628;2023-04-03T15:23:39;95861.56;;;5.08;53.53
72409;BME280;60402;48.082;11.628;2023-04-03T15:26:25;95799.13;;;4.83;53.13
72409;BME280;60402;48.082;11.628;2023-04-03T15:29:10;95859.16;;;4.96;53.34
72409;BME280;60402;48.082;11.628;2023-04-03T15:31:56;95858.34;;;4.92;52.99
72409;BME280;60402;48.082;11.628;2023-04-03T15:34:42;95875.09;;;4.74;52.64
72409;BME280;60402;48.082;11.628;2023-04-03T15:37:27;95869.88;;;4.48;52.53
72409;BME280;60402;48.082;11.628;2023-04-03T15:40:13;95846.31;;;4.67;52.47
72409;BME280;60402;48.082;11.628;2023-04-03T15:42:59;95882.25;;;4.54;51.89
72409;BME280;60402;48.082;11.628;2023-04-03T15:45:45;95867.88;;;4.52;52.06
72409;BME280;60402;48.082;11.628;2023-04-03T15:48:31;95851.91;;;4.70;52.01
72409;BME280;60402;48.082;11.628;2023-04-03T15:51:16;95871.44;;;4.45;50.55